Time;durP1;ratioP1;P1;durP2;ratioP2;P2;SDS_P1;SDS_P2;PMS_P1;PMS_P2;Temp;Humidity;BMP_temperature;BMP_pressure;BME280_temperature;BME280_humidity;BME280_pressure;Samples;Min_cycle;Max_cycle;Signal;HPM_P1;HPM_P2
2023/09/12 00:00:48;;;;;;;5.50;2.60;;;;;;;27.09;34.60;100917.60;102617;1301;61494;-82
2023/09/12 00:03:13;;;;;;;3.70;2.40;;;;;;;27.09;34.60;100918.48;102708;1296;63114;-82
2023/09/12 00:05:39;;;;;;;5.10;2.80;;;;;;;27.09;34.32;100918.70;102652;1303;61505;-82
2023/09/12 00:08:05;;;;;;;5.70;2.80;;;;;;;27.09;34.18;100917.98;102707;1300;62827;-83
2023/09/12 00:10:30;;;;;;;4.40;2.50;;;;;;;27.09;34.41;100918.92;102642;1298;62185;-82
2023/09/12 00:12:56;;;;;;;5.30;2.90;;;;;;;27.08;34.56;100922.54;102605;1296;64671;-83
2023/09/12 00:15:21;;;;;;;6.00;2.90;;;;;;;27.09;34.35;100920.34;102725;1300;62178;-83
2023/09/12 00:17:50;;;;;;;4.20;2.60;;;;;;;27.09;34.42;100919.29;102716;1301;61773;-83
2023/09/12 00:20:15;;;;;;;4.90;2.60;;;;;;;27.08;34.45;100918.23;102662;1297;61342;-82
2023/09/12 00:22:41;;;;;;;5.20;3.10;;;;;;;27.09;34.38;100919.42;102646;1296;61506;-82
2023/09/12 00:25:07;;;;;;;4.80;2.90;;;;;;;27.09;34.64;100915.50;102720;1299;61844;-82
2023/09/12 00:27:33;;;;;;;5.90;2.70;;;;;;;27.08;34.29;100914.47;102636;1300;61375;-82
2023/09/12 00:29:59;;;;;;;5.50;2.50;;;;;;;27.08;34.33;100914.99;102560;1303;61344;-82
2023/09/12 00:32:24;;;;;;;5.20;2.70;;;;;;;27.08;34.35;100916.08;102778;1297;61409;-82
2023/09/12 00:34:50;;;;;;;4.40;2.80;;;;;;;27.08;34.32;100914.27;102610;1301;65888;-83
2023/09/12 00:37:15;;;;;;;5.40;2.80;;;;;;;27.08;34.23;100917.15;102578;1298;61409;-83
2023/09/12 00:39:41;;;;;;;4.70;2.40;;;;;;;27.08;34.29;100916.09;102665;1296;61482;-82
2023/09/12 00:42:07;;;;;;;5.90;2.40;;;;;;;27.08;34.28;100914.67;102587;1297;61786;-82
2023/09/12 00:44:34;;;;;;;4.70;2.80;;;;;;;27.08;34.35;100913.92;102693;1295;63354;-83
2023/09/12 00:47:00;;;;;;;5.50;2.70;;;;;;;27.08;34.26;100914.10;102772;1300;61885;-82
2023/09/12 00:49:25;;;;;;;4.90;2.70;;;;;;;27.08;34.23;100917.89;102595;1297;61450;-82
2023/09/12 00:51:51;;;;;;;4.30;2.70;;;;;;;27.08;34.30;100918.23;102668;1298;61430;-83
2023/09/12 00:54:17;;;;;;;6.60;2.60;;;;;;;27.08;34.40;100918.25;102558;1297;61428;-82
2023/09/12 00:56:43;;;;;;;3.80;2.60;;;;;;;27.08;34.27;100915.95;102633;1300;61879;-82
2023/09/12 00:59:08;;;;;;;5.50;2.80;;;;;;;27.07;34.36;100918.14;102609;1300;61543;-83
2023/09/12 01:01:34;;;;;;;4.60;2.50;;;;;;;27.07;34.38;100919.06;102595;1296;62353;-82
2023/09/12 01:04:02;;;;;;;5.90;2.70;;;;;;;27.08;34.49;100919.04;102599;1301;61479;-83
2023/09/12 01:06:30;;;;;;;5.10;2.70;;;;;;;27.07;34.30;100915.50;102624;1300;61637;-83
2023/09/12 01:08:56;;;;;;;5.10;2.70;;;;;;;27.07;34.46;100916.02;102843;1297;61354;-82
2023/09/12 01:11:22;;;;;;;4.90;2.80;;;;;;;27.07;34.49;100916.73;102555;1297;61393;-82
2023/09/12 01:13:47;;;;;;;4.60;2.80;;;;;;;27.07;34.45;100917.98;102606;1296;61432;-83
2023/09/12 01:16:13;;;;;;;4.60;2.50;;;;;;;27.06;34.39;100922.95;102587;1300;61829;-82
2023/09/12 01:18:38;;;;;;;4.60;2.60;;;;;;;27.07;34.28;100922.85;102782;1298;61394;-83
2023/09/12 01:21:25;;;;;;;5.00;3.00;;;;;;;27.07;34.27;100921.97;102627;1300;61366;-82
2023/09/12 01:24:12;;;;;;;4.40;2.40;;;;;;;27.07;34.28;100922.55;102631;1300;62195;-83
2023/09/12 01:26:58;;;;;;;5.60;2.60;;;;;;;27.06;34.26;100924.58;102661;1296;63870;-83
2023/09/12 01:29:24;;;;;;;3.40;2.50;;;;;;;27.06;34.18;100921.89;102596;1298;65860;-83
2023/09/12 01:31:49;;;;;;;5.00;2.50;;;;;;;27.06;34.17;100924.42;102668;1301;61549;-83
2023/09/12 01:34:15;;;;;;;5.10;2.80;;;;;;;27.06;34.16;100923.65;102661;1296;61444;-83
2023/09/12 01:36:41;;;;;;;4.80;2.80;;;;;;;27.06;34.01;100921.52;102620;1297;61381;-83
2023/09/12 01:39:06;;;;;;;6.70;2.80;;;;;;;27.06;34.03;100920.43;102683;1297;61759;-82
2023/09/12 01:41:34;;;;;;;4.40;2.70;;;;;;;27.06;34.17;100922.05;102719;1300;61481;-82
2023/09/12 01:44:00;;;;;;;5.80;2.60;;;;;;;27.06;34.07;100922.98;102588;1297;61338;-82
2023/09/12 01:46:25;;;;;;;6.40;2.70;;;;;;;27.06;33.89;100924.98;102604;1299;61342;-82
2023/09/12 01:48:51;;;;;;;4.80;2.70;;;;;;;27.06;34.13;100934.02;102913;1300;61347;-82
2023/09/12 01:51:18;;;;;;;5.20;2.90;;;;;;;27.05;34.05;100932.61;102708;1300;61476;-82
2023/09/12 01:53:44;;;;;;;5.00;2.60;;;;;;;27.06;33.92;100935.80;102735;1300;61426;-82
2023/09/12 01:56:11;;;;;;;5.20;2.80;;;;;;;27.06;33.95;100934.90;102684;1295;61298;-83
2023/09/12 01:58:37;;;;;;;4.00;2.80;;;;;;;27.06;34.02;100937.23;102879;1296;61289;-82
2023/09/12 02:01:02;;;;;;;4.40;2.60;;;;;;;27.06;33.94;100938.86;102875;1295;61403;-82
2023/09/12 02:03:28;;;;;;;6.40;3.00;;;;;;;27.06;34.10;100942.85;102735;1299;61488;-82
2023/09/12 02:05:53;;;;;;;5.80;2.80;;;;;;;27.06;34.04;100942.31;102674;1299;61406;-83
2023/09/12 02:08:19;;;;;;;4.20;2.60;;;;;;;27.06;34.16;100937.84;102722;1300;62496;-82
2023/09/12 02:10:45;;;;;;;5.00;2.80;;;;;;;27.06;34.21;100933.84;102709;1296;61448;-83
2023/09/12 02:13:10;;;;;;;4.70;2.60;;;;;;;27.05;34.26;100939.65;102723;1295;61489;-82
2023/09/12 02:15:36;;;;;;;5.30;2.60;;;;;;;27.05;34.11;100936.61;102731;1300;62554;-82
2023/09/12 02:18:02;;;;;;;5.10;2.90;;;;;;;27.05;34.19;100935.88;102739;1298;61418;-82
2023/09/12 02:20:27;;;;;;;4.80;2.90;;;;;;;27.05;34.21;100940.02;102821;1294;61498;-81
2023/09/12 02:22:53;;;;;;;4.50;2.80;;;;;;;27.05;34.09;100934.59;102709;1295;61391;-82
2023/09/12 02:25:19;;;;;;;4.40;2.60;;;;;;;27.05;34.17;100934.27;102805;1300;61424;-82
2023/09/12 02:27:44;;;;;;;4.90;2.60;;;;;;;27.05;33.98;100932.99;102781;1300;61424;-82
2023/09/12 02:30:10;;;;;;;4.90;2.60;;;;;;;27.05;34.11;100938.10;102790;1300;61459;-83
2023/09/12 02:32:35;;;;;;;5.40;2.60;;;;;;;27.04;34.01;100935.41;102684;1300;61411;-82
2023/09/12 02:35:02;;;;;;;4.80;2.40;;;;;;;27.04;34.06;100940.29;102643;1301;62037;-82
2023/09/12 02:37:27;;;;;;;4.00;2.70;;;;;;;27.05;34.23;100943.17;102716;1301;61366;-82
2023/09/12 02:39:53;;;;;;;6.40;2.80;;;;;;;27.04;34.12;100939.84;102711;1302;62075;-82
2023/09/12 02:42:19;;;;;;;5.20;2.80;;;;;;;27.04;34.27;100942.15;102812;1298;61684;-82
2023/09/12 02:44:44;;;;;;;5.00;2.80;;;;;;;27.05;34.49;100942.63;102724;1301;61539;-82
2023/09/12 02:47:10;;;;;;;4.80;2.90;;;;;;;27.04;34.22;100943.02;102767;1299;63879;-83
2023/09/12 02:49:36;;;;;;;3.80;2.60;;;;;;;27.04;33.90;100943.60;102689;1300;61394;-82
2023/09/12 02:52:01;;;;;;;3.80;2.60;;;;;;;27.04;33.89;100947.16;102725;1300;61315;-82
2023/09/12 02:54:27;;;;;;;4.40;2.70;;;;;;;27.04;33.95;100944.71;102644;1299;61798;-82
2023/09/12 02:56:53;;;;;;;5.10;2.50;;;;;;;27.04;34.15;100944.14;102770;1301;61337;-82
2023/09/12 02:59:19;;;;;;;5.20;3.10;;;;;;;27.03;34.07;100941.99;102736;1295;63712;-82
2023/09/12 03:01:45;;;;;;;4.80;2.60;;;;;;;27.03;34.02;100940.04;102597;1294;65879;-82
2023/09/12 03:04:11;;;;;;;5.90;2.50;;;;;;;27.03;34.13;100938.64;102871;1299;61433;-83
2023/09/12 03:06:37;;;;;;;4.90;2.60;;;;;;;27.03;34.11;100940.39;102593;1294;369821;-83
2023/09/12 03:09:03;;;;;;;4.80;2.60;;;;;;;27.02;34.03;100940.32;102874;1294;61328;-83
2023/09/12 03:11:29;;;;;;;5.30;2.80;;;;;;;27.03;33.99;100945.45;102705;1301;62200;-82
2023/09/12 03:13:55;;;;;;;5.20;2.70;;;;;;;27.03;34.10;100944.59;102801;1301;61571;-83
2023/09/12 03:16:23;;;;;;;4.00;2.50;;;;;;;27.03;34.02;100944.23;103001;1300;61356;-83
2023/09/12 03:18:48;;;;;;;3.80;2.50;;;;;;;27.03;34.14;100945.69;102709;1300;61403;-82
2023/09/12 03:21:14;;;;;;;4.50;2.70;;;;;;;27.03;34.09;100946.96;102648;1295;61393;-82
2023/09/12 03:23:39;;;;;;;5.20;2.60;;;;;;;27.03;34.11;100951.81;103016;1296;61491;-82
2023/09/12 03:26:07;;;;;;;5.10;2.80;;;;;;;27.02;34.31;100951.50;102736;1300;62036;-82
2023/09/12 03:28:32;;;;;;;4.80;2.30;;;;;;;27.02;34.13;100947.91;102719;1300;61434;-83
2023/09/12 03:31:07;;;;;;;4.80;2.70;;;;;;;27.02;34.37;100948.27;102799;1300;61401;-83
2023/09/12 03:33:33;;;;;;;6.20;2.80;;;;;;;27.02;34.06;100949.56;102845;1300;65867;-82
2023/09/12 03:35:58;;;;;;;6.60;3.00;;;;;;;27.02;34.17;100950.14;102611;1297;61406;-82
2023/09/12 03:38:24;;;;;;;5.80;2.80;;;;;;;27.02;34.31;100951.19;102712;1297;61758;-82
2023/09/12 03:40:49;;;;;;;6.00;2.80;;;;;;;27.01;34.14;100952.67;102777;1294;61421;-82
2023/09/12 03:43:15;;;;;;;5.50;2.80;;;;;;;27.02;34.31;100954.61;102868;1294;61366;-81
2023/09/12 03:45:43;;;;;;;3.60;2.50;;;;;;;27.01;34.11;100952.15;103001;1302;61377;-81
2023/09/12 03:48:08;;;;;;;6.10;2.50;;;;;;;27.01;34.08;100952.15;102939;1296;61308;-82
2023/09/12 03:50:34;;;;;;;6.60;2.90;;;;;;;27.01;34.13;100951.48;103043;1296;62197;-81
2023/09/12 03:52:59;;;;;;;5.90;2.60;;;;;;;27.01;34.23;100947.83;102776;1298;61408;-81
2023/09/12 03:55:25;;;;;;;4.10;2.30;;;;;;;27.01;34.22;100944.60;102741;1300;61416;-80
2023/09/12 03:57:50;;;;;;;5.70;2.70;;;;;;;27.01;34.13;100945.48;102856;1294;61374;-81
2023/09/12 04:00:16;;;;;;;6.30;3.00;;;;;;;27.01;34.24;100940.63;102744;1296;61386;-83
2023/09/12 04:02:42;;;;;;;5.90;3.00;;;;;;;27.01;34.03;100939.04;102852;1295;61471;-81
2023/09/12 04:05:07;;;;;;;6.00;2.80;;;;;;;27.00;34.12;100938.36;102859;1301;61363;-82
2023/09/12 04:07:33;;;;;;;8.80;3.90;;;;;;;26.99;34.04;100938.61;102740;1294;61366;-82
2023/09/12 04:09:58;;;;;;;9.00;3.30;;;;;;;26.99;34.00;100935.94;102819;1294;61421;-82
2023/09/12 04:12:24;;;;;;;9.80;3.60;;;;;;;26.98;34.07;100936.59;103082;1294;61413;-82
2023/09/12 04:14:51;;;;;;;10.50;3.80;;;;;;;26.97;34.11;100937.42;102818;1298;61410;-82
2023/09/12 04:17:18;;;;;;;11.60;3.80;;;;;;;26.95;34.05;100938.08;102739;1295;63853;-82
2023/09/12 04:19:43;;;;;;;8.80;3.30;;;;;;;26.93;33.98;100940.28;102649;1300;61400;-82
2023/09/12 04:22:09;;;;;;;12.70;3.80;;;;;;;26.91;33.89;100940.27;102861;1294;61458;-82
2023/09/12 04:24:34;;;;;;;9.50;3.50;;;;;;;26.87;33.62;100938.49;102719;1300;61434;-84
2023/09/12 04:27:00;;;;;;;9.00;3.70;;;;;;;26.84;33.61;100944.88;103122;1294;61721;-83
2023/09/12 04:29:27;;;;;;;8.50;3.50;;;;;;;26.82;33.69;100945.83;103075;1300;63921;-83
2023/09/12 04:31:58;;;;;;;7.80;3.50;;;;;;;26.81;33.65;100949.75;102920;1296;61746;-83
2023/09/12 04:34:24;;;;;;;7.80;3.40;;;;;;;26.79;33.57;100949.20;103127;1295;61363;-83
2023/09/12 04:36:50;;;;;;;9.10;3.70;;;;;;;26.77;33.38;100949.14;102856;1296;61404;-84
2023/09/12 04:39:15;;;;;;;10.30;3.20;;;;;;;26.76;33.51;100946.77;102874;1300;61501;-82
2023/09/12 04:41:41;;;;;;;11.70;3.40;;;;;;;26.75;33.57;100947.23;103261;1294;61405;-83
2023/09/12 04:44:06;;;;;;;7.10;3.30;;;;;;;26.72;33.47;100945.80;103577;1294;61639;-85
2023/09/12 04:46:32;;;;;;;10.70;3.70;;;;;;;26.70;33.48;100947.13;103526;1294;61414;-82
2023/09/12 04:48:57;;;;;;;6.90;3.00;;;;;;;26.68;33.59;100949.99;103721;1294;61321;-83
2023/09/12 04:51:23;;;;;;;8.30;3.20;;;;;;;26.66;33.31;100950.91;103972;1298;61296;-82
2023/09/12 04:53:51;;;;;;;7.70;3.50;;;;;;;26.64;33.34;100952.19;103759;1297;61388;-84
2023/09/12 04:56:17;;;;;;;11.30;3.40;;;;;;;26.61;33.57;100953.87;103812;1294;61308;-83
2023/09/12 04:58:43;;;;;;;16.10;3.60;;;;;;;26.59;33.38;100957.14;103980;1294;61399;-85
2023/09/12 05:01:09;;;;;;;10.60;3.80;;;;;;;26.52;33.38;100965.53;104094;1294;61413;-84
2023/09/12 05:03:35;;;;;;;10.60;3.70;;;;;;;26.44;33.40;100966.44;104236;1294;61429;-83
2023/09/12 05:06:00;;;;;;;15.50;3.80;;;;;;;26.39;33.37;100971.55;104597;1294;61298;-83
2023/09/12 05:08:26;;;;;;;17.10;4.00;;;;;;;26.34;33.47;100970.95;104556;1298;61870;-85
2023/09/12 05:10:52;;;;;;;13.70;4.10;;;;;;;26.24;33.40;100975.32;103687;1294;61493;-83
2023/09/12 05:13:19;;;;;;;15.70;3.50;;;;;;;26.16;33.50;100973.31;103861;1294;61396;-85
2023/09/12 05:15:44;;;;;;;11.80;3.50;;;;;;;26.07;33.59;100976.14;103842;1295;61413;-82
2023/09/12 05:18:10;;;;;;;14.80;3.60;;;;;;;26.01;33.56;100969.11;103969;1294;61426;-83
2023/09/12 05:20:36;;;;;;;11.60;3.60;;;;;;;25.97;33.46;100970.49;103784;1297;61379;-82
2023/09/12 05:23:02;;;;;;;11.20;4.10;;;;;;;25.96;33.76;100969.64;103682;1294;61387;-83
2023/09/12 05:25:28;;;;;;;15.10;3.60;;;;;;;25.96;33.59;100975.05;103552;1295;59631;-84
2023/09/12 05:27:54;;;;;;;10.90;3.80;;;;;;;25.95;33.52;100973.14;104003;1295;65870;-84
2023/09/12 05:30:19;;;;;;;8.70;3.70;;;;;;;25.92;33.45;100971.58;103770;1294;61381;-84
2023/09/12 05:32:45;;;;;;;13.70;4.00;;;;;;;25.92;33.50;100971.46;103658;1294;61402;-83
2023/09/12 05:35:12;;;;;;;13.20;3.80;;;;;;;25.91;33.61;100975.13;104127;1294;61410;-83
2023/09/12 05:37:37;;;;;;;12.80;4.30;;;;;;;25.91;33.62;100976.34;103855;1295;61342;-83
2023/09/12 05:40:04;;;;;;;11.30;3.80;;;;;;;25.93;33.70;100975.89;103953;1295;61435;-84
2023/09/12 05:42:29;;;;;;;9.60;3.90;;;;;;;25.92;33.62;100977.54;103844;1294;61303;-83
2023/09/12 05:44:56;;;;;;;10.90;4.30;;;;;;;25.92;33.60;100977.55;103825;1294;61392;-83
2023/09/12 05:47:21;;;;;;;14.20;4.00;;;;;;;25.92;33.67;100978.14;103909;1294;63707;-83
2023/09/12 05:49:47;;;;;;;11.20;3.70;;;;;;;25.93;33.78;100981.06;103621;1300;61461;-83
2023/09/12 05:52:12;;;;;;;14.00;3.80;;;;;;;25.92;33.56;100984.00;103814;1294;61333;-82
2023/09/12 05:54:40;;;;;;;22.00;4.80;;;;;;;25.89;33.71;100989.17;104087;1295;61350;-83
2023/09/12 05:57:08;;;;;;;20.80;5.60;;;;;;;25.80;33.72;100989.87;104875;1294;63871;-82
2023/09/12 05:59:37;;;;;;;24.40;6.40;;;;;;;25.70;33.79;100990.33;104368;1294;61455;-83
2023/09/12 06:02:09;;;;;;;16.90;5.70;;;;;;;25.69;34.13;100989.38;104555;1294;61197;-82
2023/09/12 06:04:37;;;;;;;17.20;4.70;;;;;;;25.73;34.23;100987.39;104862;1297;59971;-81
2023/09/12 06:07:03;;;;;;;14.40;4.70;;;;;;;25.80;34.26;100989.33;104252;1297;61411;-82
2023/09/12 06:09:29;;;;;;;16.60;4.70;;;;;;;25.86;34.26;100986.74;104253;1294;61324;-82
2023/09/12 06:11:54;;;;;;;16.80;4.50;;;;;;;25.93;34.41;100990.45;104220;1297;61430;-82
2023/09/12 06:14:20;;;;;;;15.80;4.60;;;;;;;26.00;34.43;100991.54;104251;1297;61510;-82
2023/09/12 06:16:46;;;;;;;14.10;4.40;;;;;;;26.04;34.44;100991.89;103979;1294;61307;-82
2023/09/12 06:19:11;;;;;;;12.20;3.70;;;;;;;26.07;34.28;100995.22;103956;1298;61403;-82
2023/09/12 06:21:37;;;;;;;8.50;3.70;;;;;;;26.10;34.35;100999.59;104023;1297;61263;-82
2023/09/12 06:24:17;;;;;;;11.80;3.90;;;;;;;26.15;34.31;101001.02;104079;1294;61337;-82
2023/09/12 06:26:46;;;;;;;12.80;4.10;;;;;;;26.16;34.20;101005.10;104152;1294;59885;-82
2023/09/12 06:29:11;;;;;;;10.60;3.70;;;;;;;26.16;34.31;101008.89;104222;1294;61294;-81
2023/09/12 06:31:37;;;;;;;20.90;3.70;;;;;;;26.18;34.16;101008.32;104020;1294;61427;-81
2023/09/12 06:34:02;;;;;;;14.30;3.60;;;;;;;26.19;34.05;101011.77;103929;1294;61461;-82
2023/09/12 06:36:29;;;;;;;13.10;4.00;;;;;;;26.21;34.13;101015.02;103968;1294;58812;-82
2023/09/12 06:38:59;;;;;;;10.00;3.40;;;;;;;26.23;34.17;101016.67;103814;1294;61379;-82
2023/09/12 06:41:26;;;;;;;18.50;4.00;;;;;;;26.26;34.30;101022.02;104133;1299;61365;-82
2023/09/12 06:43:52;;;;;;;16.30;4.20;;;;;;;26.29;34.40;101021.74;104333;1295;61379;-82
2023/09/12 06:46:17;;;;;;;19.90;4.50;;;;;;;26.32;34.31;101021.66;104032;1294;61418;-82
2023/09/12 06:48:44;;;;;;;17.60;4.00;;;;;;;26.33;34.68;101021.00;104075;1294;61376;-82
2023/09/12 06:51:10;;;;;;;19.00;3.90;;;;;;;26.34;34.41;101021.30;104078;1294;61963;-82
2023/09/12 06:53:38;;;;;;;15.30;4.10;;;;;;;26.33;34.37;101017.46;104420;1294;61911;-85
2023/09/12 06:56:04;;;;;;;22.70;4.60;;;;;;;26.31;34.53;101021.42;104327;1294;61368;-82
2023/09/12 06:58:30;;;;;;;15.70;3.60;;;;;;;26.29;34.76;101025.73;104250;1294;61405;-84
2023/09/12 07:00:56;;;;;;;25.10;4.00;;;;;;;26.31;34.92;101025.17;104457;1297;61423;-85
2023/09/12 07:03:21;;;;;;;16.60;3.90;;;;;;;26.35;34.92;101024.83;104469;1297;61435;-84
2023/09/12 07:05:47;;;;;;;24.80;4.60;;;;;;;26.38;34.97;101023.47;104717;1294;59420;-84
2023/09/12 07:08:12;;;;;;;22.80;4.20;;;;;;;26.41;35.22;101028.58;104334;1294;61388;-83
2023/09/12 07:10:45;;;;;;;28.90;4.80;;;;;;;26.43;35.30;101025.39;104086;1294;61402;-82
2023/09/12 07:13:10;;;;;;;25.50;4.90;;;;;;;26.43;35.20;101025.73;104380;1295;65865;-82
2023/09/12 07:15:37;;;;;;;30.70;4.30;;;;;;;26.45;35.20;101027.95;104216;1300;61129;-83
2023/09/12 07:18:04;;;;;;;21.10;4.30;;;;;;;26.45;35.03;101028.61;104278;1294;60665;-83
2023/09/12 07:20:31;;;;;;;13.70;3.30;;;;;;;26.43;35.01;101029.49;104127;1294;63641;-81
2023/09/12 07:22:56;;;;;;;20.90;3.90;;;;;;;26.44;34.89;101028.48;104154;1294;61397;-82
2023/09/12 07:25:23;;;;;;;20.60;4.50;;;;;;;26.46;34.77;101028.70;104261;1294;61419;-83
2023/09/12 07:27:50;;;;;;;14.80;4.00;;;;;;;26.46;34.67;101029.98;104420;1294;61390;-84
2023/09/12 07:30:16;;;;;;;15.40;3.90;;;;;;;26.45;34.30;101028.08;104232;1294;61396;-82
2023/09/12 07:32:42;;;;;;;18.70;3.90;;;;;;;26.44;34.27;101024.16;104457;1294;61259;-82
2023/09/12 07:35:09;;;;;;;18.30;4.10;;;;;;;26.45;34.20;101022.99;104246;1294;61301;-82
2023/09/12 07:37:34;;;;;;;16.60;3.80;;;;;;;26.42;34.16;101024.39;104353;1294;61408;-82
2023/09/12 07:40:06;;;;;;;12.40;3.90;;;;;;;26.42;34.15;101026.13;104257;1294;59346;-82
2023/09/12 07:42:33;;;;;;;14.50;3.80;;;;;;;26.46;34.17;101024.95;104294;1294;65570;-85
2023/09/12 07:44:59;;;;;;;10.90;3.80;;;;;;;26.49;34.06;101023.52;104526;1294;61298;-82
2023/09/12 07:47:24;;;;;;;20.90;3.90;;;;;;;26.52;34.10;101020.15;104414;1294;61359;-82
2023/09/12 07:49:53;;;;;;;16.70;4.20;;;;;;;26.55;34.06;101017.98;104550;1294;61287;-82
2023/09/12 07:52:19;;;;;;;;;;;;;;;26.55;34.12;101022.13;104781;1294;65806;-82
2023/09/12 07:54:44;;;;;;;14.20;3.60;;;;;;;26.53;34.02;101019.19;104353;1295;61289;-82
2023/09/12 07:57:10;;;;;;;18.90;4.00;;;;;;;26.53;33.88;101022.16;104431;1294;61455;-82
2023/09/12 07:59:35;;;;;;;17.10;4.00;;;;;;;26.49;33.98;101019.81;104734;1294;59207;-83
2023/09/12 08:02:01;;;;;;;31.70;4.70;;;;;;;26.47;33.82;101020.29;104702;1295;61262;-83
2023/09/12 08:04:27;;;;;;;16.60;4.40;;;;;;;26.48;33.97;101021.00;104677;1294;65872;-82
2023/09/12 08:06:52;;;;;;;17.20;3.80;;;;;;;26.48;33.71;101020.64;104301;1294;59206;-82
2023/09/12 08:09:18;;;;;;;13.80;3.70;;;;;;;26.44;33.76;101021.52;104300;1294;61406;-83
2023/09/12 08:11:43;;;;;;;19.10;3.90;;;;;;;26.40;33.62;101023.40;103981;1294;59473;-83
2023/09/12 08:14:09;;;;;;;14.20;3.80;;;;;;;26.35;33.38;101023.17;103999;1294;61338;-82
2023/09/12 08:16:34;;;;;;;18.70;3.90;;;;;;;26.33;33.46;101026.58;104395;1294;65963;-83
2023/09/12 08:19:00;;;;;;;18.50;3.90;;;;;;;26.37;33.59;101024.69;104392;1294;59298;-82
2023/09/12 08:21:25;;;;;;;12.70;4.10;;;;;;;26.41;33.95;101027.58;104036;1294;61308;-81
2023/09/12 08:23:51;;;;;;;21.70;4.20;;;;;;;26.41;33.86;101026.64;104039;1294;61228;-83
2023/09/12 08:26:17;;;;;;;18.90;4.70;;;;;;;26.37;33.81;101027.90;104128;1294;61427;-82
2023/09/12 08:28:42;;;;;;;13.80;4.30;;;;;;;26.39;34.07;101027.02;104124;1294;65834;-83
2023/09/12 08:31:08;;;;;;;17.30;3.80;;;;;;;26.42;34.17;101025.95;104227;1294;61302;-83
2023/09/12 08:33:33;;;;;;;10.50;3.90;;;;;;;26.46;34.27;101029.81;104036;1294;59395;-82
2023/09/12 08:35:59;;;;;;;16.20;4.40;;;;;;;26.50;34.60;101024.91;104426;1293;61428;-82
2023/09/12 08:38:25;;;;;;;15.70;3.70;;;;;;;26.55;34.85;101028.27;104123;1294;61500;-83
2023/09/12 08:40:50;;;;;;;11.50;4.10;;;;;;;26.58;34.85;101028.31;104449;1294;61387;-81
2023/09/12 08:43:16;;;;;;;15.40;4.30;;;;;;;26.60;34.72;101028.28;103964;1294;61402;-81
2023/09/12 08:45:44;;;;;;;20.00;4.60;;;;;;;26.63;34.79;101024.87;104239;1294;61821;-82
2023/09/12 08:48:10;;;;;;;22.40;4.30;;;;;;;26.65;34.77;101022.51;104015;1294;64128;-82
2023/09/12 08:50:36;;;;;;;19.50;4.00;;;;;;;26.67;34.52;101021.02;104746;1294;60035;-84
2023/09/12 08:53:03;;;;;;;32.60;5.70;;;;;;;26.68;34.40;101023.09;104623;1294;61209;-82
2023/09/12 08:55:33;;;;;;;22.60;4.50;;;;;;;26.72;34.73;101023.63;104706;1294;59254;-82
2023/09/12 08:57:59;;;;;;;21.30;4.50;;;;;;;26.76;34.76;101017.84;104591;1294;64030;-83
2023/09/12 09:00:24;;;;;;;23.60;4.90;;;;;;;26.78;34.61;101018.23;104353;1294;62098;-83
2023/09/12 09:02:50;;;;;;;17.30;4.10;;;;;;;26.77;34.36;101013.45;104452;1294;61332;-82
2023/09/12 09:05:16;;;;;;;20.20;4.30;;;;;;;26.76;34.55;101010.64;104493;1294;61535;-83
2023/09/12 09:07:42;;;;;;;20.10;4.30;;;;;;;26.77;34.45;101010.23;104343;1294;59630;-82
2023/09/12 09:10:14;;;;;;;20.30;4.50;;;;;;;26.76;34.12;101010.80;104702;1294;61835;-83
2023/09/12 09:12:43;;;;;;;19.20;4.50;;;;;;;26.76;33.74;101009.57;104487;1294;65713;-83
2023/09/12 09:15:25;;;;;;;16.10;4.40;;;;;;;26.77;33.43;101011.67;104858;1294;59589;-83
2023/09/12 09:17:52;;;;;;;18.50;4.20;;;;;;;26.75;33.29;101007.63;104879;1300;61337;-82
2023/09/12 09:20:34;;;;;;;13.50;4.10;;;;;;;26.73;33.10;101006.23;104663;1294;59728;-82
2023/09/12 09:23:08;;;;;;;12.90;3.90;;;;;;;26.71;32.86;101004.20;104913;1294;65765;-83
2023/09/12 09:25:36;;;;;;;12.20;4.00;;;;;;;26.71;32.66;101003.64;104903;1294;61229;-83
2023/09/12 09:28:05;;;;;;;10.90;3.70;;;;;;;26.72;32.49;101002.68;104908;1294;60415;-82
2023/09/12 09:30:41;;;;;;;;;;;;;;;26.73;32.43;101001.90;104924;1294;63639;-82
2023/09/12 09:33:07;;;;;;;13.00;4.40;;;;;;;26.71;32.36;100998.33;104887;1294;65555;-83
2023/09/12 09:35:32;;;;;;;18.60;4.80;;;;;;;26.69;32.49;100995.17;104493;1294;59306;-83
2023/09/12 09:37:58;;;;;;;16.40;4.30;;;;;;;26.65;32.20;100992.65;104616;1294;61240;-83
2023/09/12 09:40:24;;;;;;;13.60;4.30;;;;;;;26.64;32.13;100991.48;104338;1300;61331;-82
2023/09/12 09:42:59;;;;;;;12.90;4.20;;;;;;;26.65;32.26;100991.44;104573;1294;61306;-82
2023/09/12 09:45:25;;;;;;;11.10;4.10;;;;;;;26.62;32.00;100988.05;104370;1294;61347;-83
2023/09/12 09:47:51;;;;;;;14.60;4.20;;;;;;;26.62;32.06;100986.30;104487;1295;59322;-83
2023/09/12 09:50:16;;;;;;;12.60;4.40;;;;;;;26.64;32.04;100984.14;104384;1294;61617;-82
2023/09/12 09:52:45;;;;;;;19.70;4.40;;;;;;;26.64;31.93;100983.40;104243;1294;62603;-83
2023/09/12 09:55:16;;;;;;;19.60;4.70;;;;;;;26.61;31.97;100980.74;104354;1294;61093;-83
2023/09/12 09:57:42;;;;;;;49.00;5.10;;;;;;;26.61;31.89;100979.32;104396;1294;61385;-84
2023/09/12 10:00:08;;;;;;;45.20;5.20;;;;;;;26.63;32.01;100978.06;104560;1294;61341;-82
2023/09/12 10:02:37;;;;;;;41.40;6.00;;;;;;;26.66;32.00;100972.95;104258;1294;59307;-85
2023/09/12 10:05:04;;;;;;;34.70;4.90;;;;;;;26.69;32.29;100967.39;104985;1294;61257;-83
2023/09/12 10:07:34;;;;;;;24.10;4.40;;;;;;;26.73;32.51;100966.33;104755;1296;59269;-83
2023/09/12 10:10:01;;;;;;;32.30;5.40;;;;;;;26.76;32.62;100963.19;104847;1294;63818;-82
2023/09/12 10:12:28;;;;;;;39.10;5.10;;;;;;;26.78;32.65;100963.16;104641;1294;66157;-83
2023/09/12 10:14:54;;;;;;;30.90;4.70;;;;;;;26.80;32.55;100957.60;104893;1294;59847;-82
2023/09/12 10:17:19;;;;;;;24.70;4.70;;;;;;;26.82;32.66;100956.99;104619;1294;59822;-84
2023/09/12 10:19:51;;;;;;;12.30;4.70;;;;;;;26.84;32.85;100958.97;104617;1297;60608;-83
2023/09/12 10:22:25;;;;;;;17.30;4.70;;;;;;;26.82;32.55;100955.41;104430;1294;65912;-83
2023/09/12 10:24:51;;;;;;;11.20;4.90;;;;;;;26.78;32.36;100958.27;104728;1294;61150;-83
2023/09/12 10:27:18;;;;;;;11.10;4.80;;;;;;;26.74;32.09;100953.21;104434;1294;61471;-84
2023/09/12 10:29:47;;;;;;;15.30;4.20;;;;;;;26.72;31.99;100953.76;104443;1294;62069;-84
2023/09/12 10:32:13;;;;;;;11.40;4.20;;;;;;;26.74;32.15;100949.12;104560;1294;66218;-84
2023/09/12 10:34:38;;;;;;;20.10;4.70;;;;;;;26.76;32.24;100946.00;104295;1294;61480;-84
2023/09/12 10:37:04;;;;;;;25.30;5.00;;;;;;;26.79;32.18;100945.58;104217;1294;61352;-83
2023/09/12 10:39:32;;;;;;;14.30;4.60;;;;;;;26.79;32.11;100942.67;104344;1294;59269;-82
2023/09/12 10:41:58;;;;;;;15.70;4.40;;;;;;;26.78;31.98;100936.85;103955;1294;59324;-83
2023/09/12 10:44:24;;;;;;;12.50;4.10;;;;;;;26.75;31.80;100939.05;104320;1294;60341;-81
2023/09/12 10:46:49;;;;;;;16.80;5.10;;;;;;;26.76;32.21;100936.80;103990;1294;59540;-83
2023/09/12 10:49:15;;;;;;;12.80;4.30;;;;;;;26.77;31.84;100933.09;104090;1294;61449;-82
2023/09/12 10:51:45;;;;;;;12.10;4.40;;;;;;;26.77;31.75;100932.21;104190;1294;61342;-83
2023/09/12 10:54:35;;;;;;;15.80;4.60;;;;;;;26.78;31.77;100932.66;104320;1297;65574;-84
2023/09/12 10:57:04;;;;;;;16.10;4.90;;;;;;;26.80;32.00;100929.98;104508;1294;59093;-83
2023/09/12 10:59:35;;;;;;;17.30;5.20;;;;;;;26.83;32.06;100928.44;104732;1293;61139;-85
2023/09/12 11:02:29;;;;;;;18.40;5.40;;;;;;;26.85;32.25;100925.64;105109;1295;63853;-82
2023/09/12 11:04:55;;;;;;;16.80;4.90;;;;;;;26.87;32.22;100927.83;105377;1294;66750;-82
2023/09/12 11:07:36;;;;;;;16.10;5.00;;;;;;;26.91;32.18;100927.30;105405;1294;61277;-81
2023/09/12 11:10:20;;;;;;;23.10;5.70;;;;;;;26.94;32.43;100924.88;105296;1294;60225;-81
2023/09/12 11:12:50;;;;;;;13.30;4.60;;;;;;;26.94;32.39;100922.66;105059;1294;63920;-82